Terminal Aerodrome Forecast
Issued by NWS

Home | Current Version | Previous Version | Text Only | Print | Product List | Glossary On
Versions: 1 2 3 4 5 6 7 8 9 10 11 12 13
454
FTUS45 KVEF 192320
TAFHND
TAF
KHND 192320Z 2000/2024 16011KT P6SM FEW130
     FM200100 20011KT P6SM SKC
     FM201400 VRB05KT P6SM SKC
     FM201900 15011G18KT P6SM SCT130=

USA.gov is the U.S. government's official web portal to all federal, state and local government web resources and services.